windsock image

Welcome to Bigfield Strip.

anemometer image
     

 Help for dials.  
 
Local Met:

Wind:   
10 Min average:  
265 ° / 7.1 kts (7.0)
272° / 7.6

Temperature:  
7.6°C C
Dew Point:  
6.6°C C
QNH:  
Trend:  
1026.6 mb mb
+0.0mb/hr
BigField Strip. This image updates approximately every minute, it can have a two minute delay.  
 

Humidity:  
93 %
Sunrise:   08:08z
Sunset:   15:54z
Updated:  
  UTC
 
   More met info, trends, radar, history etc. available here   

LUTON Metar   EGGW 211020Z 24016KT 9999 BKN009 07/06 Q1026
 
  TAF   2014/12/21 09:13 TAF AMD EGGW 210906Z 2109/2206 23012KT 9999 BKN025 TEMPO 2109/2110 4000 DZ BKN004 BECMG 2110/2113 BKN010 TEMPO 2112/2206 24017G27KT PROB40 TEMPO 2116/2202 7000 -RADZ BKN006 BECMG 2202/2205 BKN020
 
BENSON Metar   EGUB 210950Z AUTO 22011KT 9999 // BKN013/// BKN021/// 08/06 Q1027
 
  TAF   2014/12/19 15:03 TAF EGUB 191343Z 1915/1918 26012KT 9999 FEW030 PROB30 TEMPO 1915/1918 26015G25KT
 
Big Field view 1 icon   Big Field view 2 icon   Big Field view 3 icon   Chart AL3a in PDF icon   Chart AL3a in Word icon

WARNING:
This information is provided by the Airstrip unofficial weather station, DO NOT depend on the data provided here for any purpose.
This page is updated for latest Metars & TAF's every 5 minutes. Refresh the browser to check for the lastest.
Page designed for a minimum browser size of 1024x768.
© Copyright 2014 BigField Strip. This page auto generated 10:36 UTC - 21/12/2014   Contact Us
Valid HTML 4.01 Transitional     Windows uptime: 6 Days 8 Hours 4 Minutes 24 Seconds    WD started: 02:37 15/12/14    Free memory: 1522MB     Valid CSS!